Tiempo atmosférico en la estación meteorológica de Cubillas de Rueda, León (916 m.)



Fecha
DESCASC
Temp. máxima en grados centígrados (hora)
DESCASC
Temp. mínima en grados centígrados (hora)
DESCASC
Temp. media en grados centígrados
DESCASC
Racha de viento máxima en m/sg (hora)
DESCASC
Velocidad máxima media en intervalos de 10 minutos(hora)
DESCASC
Precipitaciones diarias en mm
DESCASC
Precipitaciones de 00:00 a 06:00 en mm
DESCASC
Precipitaciones de 06:00 a 12:00 en mm
DESCASC
Precipitaciones de 12:00 a 18:00 en mm
DESCASC
Precipitaciones de 18:00 a 24:00 en mm
DESCASC
18-10-2018 19.5 (14:30) 8.4 (09:00) 13.9 11.94 (16:20) 7.5 (16:20) 0 0 0 0 0
17-10-2018 17.4 (15:50) 2.4 (08:30) 9.9 5.28 (15:20) 3.33 (15:00) 0 0 0 0 0
16-10-2018 17.9 (17:20) 1.9 (07:30) 9.9 5.56 (16:30) 2.5 (15:30) 0 0 0 0 0
15-10-2018 10.2 (17:40) 2.6 (04:20) 6.4 4.17 (14:10) 2.5 (13:50) 1.8 0 1.8 0 0
14-10-2018 17.4 (04:00) 5 (00:00) 11.2 17.22 (04:50) 8.89 (04:00) 4.8 0 3.4 1.4 0
13-10-2018 22.7 (17:00) 7.6 (00:00) 15.2 7.22 (15:30) 5 (23:50) 0 0 0 0 0
12-10-2018 19.2 (17:40) 8.7 (00:00) 14 8.33 (13:10) 4.44 (13:10) 0 0 0 0 0
11-10-2018 17.3 (16:40) 9.9 (23:50) 13.6 11.39 (12:40) 6.67 (12:50) 2.2 0 0.8 1.4 0
10-10-2018 18.6 (17:50) 6.2 (00:00) 12.4 8.89 (17:40) 4.72 (21:00) 0 0 0 0 0
09-10-2018 18.7 (16:20) 2.9 (07:40) 10.8 10.28 (15:40) 5 (19:50) 0 0 0 0 0
08-10-2018 18.5 (15:30) -0.3 (05:50) 9.1 8.89 (15:30) 5 (17:50) 0 0 0 0 0
07-10-2018 13.3 (15:00) 0.3 (07:10) 6.8 11.39 (14:20) 7.5 (18:30) 0 0 0 0 0
06-10-2018 20.5 (14:50) 2.6 (08:40) 11.5 12.78 (17:00) 7.78 (18:50) 0 0 0 0 0
05-10-2018 25.2 (16:40) 5.1 (07:10) 15.2 6.39 (14:50) 3.61 (14:50) 0 0 0 0 0
04-10-2018 26.5 (16:40) 3.9 (00:00) 15.2 6.11 (14:40) 3.33 (17:10) 0 0 0 0 0
03-10-2018 25.1 (16:30) 4.6 (00:00) 14.9 11.67 (16:30) 7.5 (12:30) 0 0 0 0 0
02-10-2018 23.2 (17:20) -0.4 (00:00) 11.4 8.06 (19:10) 5.28 (19:10) 0 0 0 0 0
01-10-2018 21.6 (16:20) 3.4 (00:00) 12.5 6.39 (17:10) 4.17 (19:10) 0 0 0 0 0
30-09-2018 26.7 (17:30) 5.6 (00:00) 16.2 7.5 (18:50) 5.56 (18:40) 0 0 0 0 0
29-09-2018 27.3 (16:20) 11.4 (00:00) 19.3 6.67 (16:30) 3.61 (00:20) 0 0 0 0 0
28-09-2018 27.9 (16:00) 11.1 (00:00) 19.5 7.22 (18:50) 4.44 (18:50) 0 0 0 0 0
27-09-2018 28.3 (17:00) 9.8 (00:00) 19 5.28 (13:10) 3.33 (17:40) 0 0 0 0 0
26-09-2018 27 (17:50) 4.2 (00:00) 15.6 6.39 (12:50) 3.33 (17:00) 0 0 0 0 0
25-09-2018 24.2 (17:40) 1.9 (00:00) 13.1 8.61 (12:50) 4.17 (20:40) 0 0 0 0 0
24-09-2018 24.5 (17:00) 8.7 (00:00) 16.6 9.17 (19:10) 6.11 (19:10) 0 0 0 0 0
23-09-2018 30.1 (17:40) 11.2 (08:00) 20.7 8.33 (19:20) 5.83 (19:10) 0 0 0 0 0
22-09-2018 28.4 (18:00) 9.1 (07:40) 18.8 6.11 (14:40) 3.61 (14:20) 0 0 0 0 0
21-09-2018 25.6 (17:10) 5.3 (08:10) 15.5 5.56 (17:10) 3.89 (22:30) 0 0 0 0 0
20-09-2018 28 (17:50) 9.4 (07:10) 18.7 9.17 (15:40) 5.28 (15:00) 0 0 0 0 0

Gráficas

Temp. máximas Temp. mínimas Temp. medias Precipitaciones Rachas de viento máximas Velocidades máximas media en intervalos de 10 minutos

Datos horarios

Fecha y hora oficial Temperatura (ºC) Velocidad del viento (km/h) Dirección del viento Racha (km/h) Dirección de racha Precipitación (mm) Presión (hPa) Tendencia (hPa) Humedad (%)
2018-10-19 23:00:00 12.3 0 Calma 21 Nordeste 0 -- -- 70
2018-10-19 22:00:00 13.1 15 Nordeste 22 Nordeste 0 -- -- 69
2018-10-19 21:00:00 13.2 9 Este 22 Este 0 -- -- 69
2018-10-19 20:00:00 14.9 11 Este 32 Este 0 -- -- 63
2018-10-19 19:00:00 17 23 Este 37 Este 0 -- -- 57
2018-10-19 18:00:00 18.5 23 Este 43 Este 0 -- -- 54
2018-10-19 17:00:00 18.7 26 Este 41 Este 0 -- -- 54
2018-10-19 16:00:00 19.9 21 Este 40 Este 0 -- -- 52
2018-10-19 15:00:00 20.3 23 Este 43 Este 0 -- -- 49
2018-10-19 14:00:00 19 31 Nordeste 51 Este 0 -- -- 51
2018-10-19 13:00:00 19 28 Este 42 Nordeste 0 -- -- 52
2018-10-19 12:00:00 18.4 14 Nordeste 26 Este 0 -- -- 55
2018-10-19 11:00:00 15.4 10 Nordeste 16 Nordeste 0 -- -- 64
2018-10-19 10:00:00 13.1 10 Este 15 Este 0 -- -- 71
2018-10-19 09:00:00 7.9 10 Este 13 Nordeste 0 -- -- 88
2018-10-19 08:00:00 7.7 0 Calma 11 Nordeste 0 -- -- 83
2018-10-19 07:00:00 10 12 Nordeste 13 Nordeste 0 -- -- 78
2018-10-19 06:00:00 8.9 5 Nordeste 15 Nordeste 0 -- -- 81
2018-10-19 05:00:00 10.1 11 Nordeste 14 Nordeste 0 -- -- 76
2018-10-19 04:00:00 9 7 Nordeste 14 Nordeste 0 -- -- 82
2018-10-19 03:00:00 7.9 5 Nordeste 7 Este 0 -- -- 87
2018-10-19 02:00:00 9.4 5 Nordeste 8 Nordeste 0 -- -- 85
2018-10-19 01:00:00 10.7 5 Nordeste 11 Nordeste 0 -- -- 81
2018-10-19 00:00:00 10.9 7 Nordeste 13 Este 0 -- -- 82
2018-10-18 23:00:00 10.7 10 Este 16 Nordeste 0 -- -- 83
2018-10-18 22:00:00 11.8 11 Nordeste 14 Nordeste 0 -- -- 78
2018-10-18 21:00:00 13.2 12 Nordeste 24 Nordeste 0 -- -- 71
2018-10-18 20:00:00 15.3 13 Nordeste 23 Nordeste 0 -- -- 62
2018-10-18 19:00:00 17 20 Nordeste 29 Nordeste 0 -- -- 54
2018-10-18 18:00:00 18.1 19 Este 32 Este 0 -- -- 51
2018-10-18 17:00:00 18.8 19 Este 43 Este 0 -- -- 50
2018-10-18 16:00:00 18.3 23 Este 41 Este 0 -- -- 48
2018-10-18 15:00:00 19.2 19 Este 34 Este 0 -- -- 49
2018-10-18 14:00:00 19.1 14 Este 27 Este 0 -- -- 50
2018-10-18 13:00:00 17.5 16 Este 29 Nordeste 0 -- -- 56
2018-10-18 12:00:00 15.8 15 Norte 21 Norte 0 -- -- 63
2018-10-18 11:00:00 11.3 5 Nordeste 10 Norte 0 -- -- 82
2018-10-18 10:00:00 9.8 4 Nordeste 9 Nordeste 0 -- -- 86
2018-10-18 09:00:00 8.4 7 Nordeste 8 Nordeste 0 -- -- 88
2018-10-18 08:00:00 9.6 3 Nordeste 12 Nordeste 0 -- -- 83
2018-10-18 07:00:00 10.1 0 Calma 8 Norte 0 -- -- 84
2018-10-18 06:00:00 11.2 6 Este 10 Este 0 -- -- 80
2018-10-18 05:00:00 11.8 5 Nordeste 10 Nordeste 0 -- -- 75
2018-10-18 04:00:00 11.8 9 Nordeste 16 Este 0 -- -- 74
2018-10-18 03:00:00 11.7 12 Este 19 Este 0 -- -- 76
2018-10-18 02:00:00 11.3 8 Nordeste 13 Este 0 -- -- 79
2018-10-18 01:00:00 9.7 2 Nordeste 4 Nordeste 0 -- -- 86
2018-10-18 00:00:00 10 0 Calma 4 Nordeste 0 -- -- 84
2018-10-17 23:00:00 10.2 3 Este 8 Nordeste 0 -- -- 85
2018-10-17 22:00:00 10.7 3 Nordeste 6 Nordeste 0 -- -- 83
2018-10-17 21:00:00 11 3 Este 4 Este 0 -- -- 79
2018-10-17 20:00:00 12.2 2 Este 4 Este 0 -- -- 74
2018-10-17 19:00:00 14.6 3 Sur 15 Oeste 0 -- -- 66
2018-10-17 18:00:00 16.2 5 Sudoeste 14 Oeste 0 -- -- 58
2018-10-17 17:00:00 16.1 3 Sudoeste 17 Sudoeste 0 -- -- 59
2018-10-17 16:00:00 17.2 10 Sudoeste 19 Sur 0 -- -- 52
2018-10-17 15:00:00 16 12 Sudoeste 19 Sudoeste 0 -- -- 60
2018-10-17 14:00:00 15.3 8 Sudoeste 14 Sudoeste 0 -- -- 66
2018-10-17 13:00:00 14 4 Sudoeste 12 Sudoeste 0 -- -- 75
2018-10-17 12:00:00 12.4 3 Sudoeste 7 Sudoeste 0 -- -- 84
2018-10-17 11:00:00 8.5 3 Nordeste 6 Nordeste 0 -- -- 99
2018-10-17 10:00:00 5.5 3 Nordeste 5 Nordeste 0 -- -- 98
2018-10-17 09:00:00 3.5 2 Nordeste 4 Nordeste 0 -- -- 98
2018-10-17 08:00:00 2.7 2 Nordeste 6 Nordeste 0 -- -- 96
2018-10-17 07:00:00 2.8 2 Nordeste 4 Este 0 -- -- 96
2018-10-17 06:00:00 3.1 3 Nordeste 6 Nordeste 0 -- -- 95
2018-10-17 05:00:00 3.4 3 Nordeste 5 Nordeste 0 -- -- 95
2018-10-17 04:00:00 4.1 4 Nordeste 7 Nordeste 0 -- -- 94
2018-10-17 03:00:00 3.9 0 Calma 6 Este 0 -- -- 93
2018-10-17 02:00:00 4.8 3 Nordeste 6 Este 0 -- -- 94
2018-10-17 01:00:00 4.9 4 Nordeste 6 Este 0 -- -- 92
2018-10-17 00:00:00 5.9 3 Nordeste 5 Nordeste 0 -- -- 91
2018-10-16 23:00:00 6.8 5 Este 6 Nordeste 0 -- -- 90
2018-10-16 22:00:00 7.6 0 Calma 2 Nordeste 0 -- -- 90
2018-10-16 21:00:00 9.7 0 Calma 6 Sudoeste 0 -- -- 80
2018-10-16 20:00:00 13.6 4 Sudoeste 10 Oeste 0 -- -- 70
2018-10-16 19:00:00 16.9 5 Sudoeste 12 Oeste 0 -- -- 57
2018-10-16 18:00:00 17.6 4 Sudoeste 14 Sudoeste 0 -- -- 54
2018-10-16 17:00:00 17.2 3 Noroeste 20 Sudoeste 0 -- -- 57
2018-10-16 16:00:00 16.8 8 Noroeste 17 Oeste 0 -- -- 58
2018-10-16 15:00:00 16.2 4 Sudoeste 15 Oeste 0 -- -- 64
2018-10-16 14:00:00 13.9 7 Noroeste 12 Oeste 0 -- -- 70
2018-10-16 13:00:00 12.4 6 Noroeste 13 Oeste 0 -- -- 75
2018-10-16 12:00:00 10.8 6 Noroeste 10 Oeste 0 -- -- 82
2018-10-16 11:00:00 8.3 4 Norte 10 Nordeste 0 -- -- 96
2018-10-16 10:00:00 5.2 4 Norte 8 Nordeste 0 -- -- 98
2018-10-16 09:00:00 3.5 0 Calma 5 Este 0 -- -- 98
2018-10-16 08:00:00 3.1 5 Este 9 Sudeste 0 -- -- 99
2018-10-16 07:00:00 2.8 2 Nordeste 6 Nordeste 0 -- -- 96
2018-10-16 06:00:00 3.5 5 Este 7 Este 0 -- -- 96
2018-10-16 05:00:00 4.5 4 Nordeste 7 Nordeste 0 -- -- 95
2018-10-16 04:00:00 5.5 2 Nordeste 9 Este 0 -- -- 95
2018-10-16 03:00:00 5.9 6 Este 9 Este 0 -- -- 96
2018-10-16 02:00:00 6 0 Calma 4 Noroeste 0 -- -- 89
2018-10-16 01:00:00 8.7 2 Nordeste 7 Nordeste 0 -- -- 90
2018-10-16 00:00:00 8.8 4 Nordeste 7 Nordeste 0 -- -- 90
2018-10-15 23:00:00 8.8 0 Calma 5 Sur 0 -- -- 87
2018-10-15 22:00:00 9.2 4 Sudeste 10 Este 0 -- -- 83
2018-10-15 21:00:00 9.3 4 Este 10 Este 0 -- -- 82
2018-10-15 20:00:00 9.4 3 Norte 10 Norte 0 -- -- 82
2018-10-15 19:00:00 9.7 5 Norte 9 Noroeste 0 -- -- 83
2018-10-15 18:00:00 10 4 Norte 8 Noroeste 0 -- -- 82
2018-10-15 17:00:00 9.9 2 Sur 7 Sudoeste 0 -- -- 83
2018-10-15 16:00:00 9.2 0 Calma 8 Sudeste 0 -- -- 89
2018-10-15 15:00:00 8.7 6 Este 15 Este 0 -- -- 92
2018-10-15 14:00:00 8.1 7 Este 13 Este 0 -- -- 93
2018-10-15 13:00:00 7.4 3 Sudeste 12 Sudeste 0 -- -- 92
2018-10-15 12:00:00 6.9 5 Sur 11 Sudeste 1 -- -- 93
2018-10-15 11:00:00 6.4 2 Sudeste 9 Sur 0.4 -- -- 94
2018-10-15 10:00:00 6 6 Sur 13 Sudoeste 0.2 -- -- 96
2018-10-15 09:00:00 5.5 0 Calma 8 Este 0.2 -- -- 97
2018-10-15 08:00:00 4.7 5 Noroeste 10 Sudeste 0 -- -- 96
2018-10-15 07:00:00 4.6 3 Norte 4 Norte 0 -- -- 96
2018-10-15 06:00:00 3.9 0 Calma 6 Nordeste 0 -- -- 96
2018-10-15 05:00:00 3.3 0 Calma 5 Este 0 -- -- 96
2018-10-15 04:00:00 3 0 Calma 5 Este 0 -- -- 93
2018-10-15 03:00:00 3.9 0 Calma 4 Este 0 -- -- 94
2018-10-15 02:00:00 3.5 2 Sur 6 Oeste 0 -- -- 93
2018-10-15 01:00:00 4.6 3 Oeste 12 Este 0 -- -- 92
2018-10-15 00:00:00 5 0 Calma 6 Nordeste 0 -- -- 90
2018-10-14 23:00:00 7.2 4 Oeste 10 Sudoeste 0 -- -- 87
2018-10-14 22:00:00 8.9 0 Calma 11 Nordeste 0 -- -- 86
2018-10-14 21:00:00 9.8 0 Calma 9 Noroeste 0 -- -- 83
2018-10-14 20:00:00 10.1 5 Noroeste 16 Noroeste 0 -- -- 79
2018-10-14 19:00:00 10.4 2 Sudoeste 6 Oeste 0 -- -- 81
2018-10-14 18:00:00 10.3 3 Noroeste 12 Nordeste 0 -- -- 78
2018-10-14 17:00:00 9.8 9 Nordeste 14 Nordeste 0 -- -- 81
2018-10-14 16:00:00 9.3 5 Nordeste 9 Nordeste 0.8 -- -- 85
2018-10-14 15:00:00 9 5 Norte 10 Norte 0.6 -- -- 88
2018-10-14 14:00:00 8.7 7 Norte 24 Norte 0 -- -- 87
2018-10-14 13:00:00 8.5 16 Norte 30 Norte 0 -- -- 84
2018-10-14 12:00:00 8.6 6 Noroeste 20 Noroeste 1.4 -- -- 92
2018-10-14 11:00:00 8.4 8 Noroeste 28 Norte 2 -- -- 92
2018-10-14 10:00:00 9.8 8 Este 15 Este 0 -- -- 92
2018-10-14 09:00:00 9.9 4 Sudeste 22 Sur 0 -- -- 90
2018-10-14 08:00:00 11.1 9 Sur 36 Sudoeste 0 -- -- 79
2018-10-14 07:00:00 12.6 17 Sur 44 Sur 0 -- -- 75
2018-10-14 06:00:00 14.8 27 Sur 61 Sur 0 -- -- 70
2018-10-14 05:00:00 15.9 32 Sur 62 Sur 0 -- -- 67
2018-10-14 04:00:00 17.4 32 Sur 56 Sur 0 -- -- 56
2018-10-14 03:00:00 16.6 17 Sur 33 Sudeste 0 -- -- 69
2018-10-14 02:00:00 16.3 11 Sudeste 26 Sudeste 0 -- -- 66
2018-10-14 01:00:00 15.9 13 Sudeste 24 Sudeste 0 -- -- 68
2018-10-14 00:00:00 16.6 17 Sudeste 26 Sudeste 0 -- -- 65
2018-10-13 23:00:00 16.3 12 Sudeste 22 Este 0 -- -- 66
2018-10-13 22:00:00 16.9 13 Sudeste 18 Sudeste 0 -- -- 64
2018-10-13 21:00:00 17.2 10 Sudeste 18 Sudeste 0 -- -- 64
2018-10-13 20:00:00 18 8 Sudeste 15 Sur 0 -- -- 59
2018-10-13 19:00:00 21.1 7 Sur 19 Sur 0 -- -- 50
2018-10-13 18:00:00 22.2 8 Sur 23 Sur 0 -- -- 50
2018-10-13 17:00:00 22.7 10 Sur 26 Sur 0 -- -- 50
2018-10-13 16:00:00 21.8 12 Sudoeste 26 Sur 0 -- -- 54
2018-10-13 15:00:00 20.5 12 Sur 23 Sudoeste 0 -- -- 58
2018-10-13 14:00:00 19.5 9 Sur 23 Sur 0 -- -- 60
2018-10-13 13:00:00 18.8 8 Sudeste 17 Sudoeste 0 -- -- 65
2018-10-13 12:00:00 17.4 6 Sudeste 16 Sudeste 0 -- -- 70
2018-10-13 11:00:00 14 5 Nordeste 10 Norte 0 -- -- 84
2018-10-13 10:00:00 12.7 2 Nordeste 9 Sudeste 0 -- -- 88
2018-10-13 09:00:00 10.4 2 Este 6 Nordeste 0 -- -- 92
2018-10-13 08:00:00 10.6 2 Nordeste 6 Norte 0 -- -- 93
2018-10-13 07:00:00 10.1 3 Norte 7 Este 0 -- -- 96
2018-10-13 06:00:00 8.4 5 Nordeste 7 Nordeste 0 -- -- 95
2018-10-13 05:00:00 7.6 2 Este 5 Este 0 -- -- 92
2018-10-13 04:00:00 9.1 3 Nordeste 6 Norte 0 -- -- 92
2018-10-13 03:00:00 10.2 3 Nordeste 7 Este 0 -- -- 91
2018-10-13 02:00:00 10.1 0 Calma 6 Sur 0 -- -- 89
2018-10-13 01:00:00 11.2 2 Sudeste 6 Noroeste 0 -- -- 85
2018-10-13 00:00:00 13.9 2 Sudoeste 8 Sur 0 -- -- 78
2018-10-12 23:00:00 13.9 3 Este 5 Este 0 -- -- 79
2018-10-12 22:00:00 15.1 0 Calma 8 Sudeste 0 -- -- 76
2018-10-12 21:00:00 15.2 6 Sudeste 9 Sudeste 0 -- -- 71
2018-10-12 20:00:00 17.3 4 Sur 8 Sur 0 -- -- 64
2018-10-12 19:00:00 18.1 7 Sudoeste 19 Sudoeste 0 -- -- 60
2018-10-12 18:00:00 18.7 13 Sudoeste 24 Sudoeste 0 -- -- 57
2018-10-12 17:00:00 18.4 12 Sudoeste 20 Sur 0 -- -- 58
2018-10-12 16:00:00 17.3 8 Sudoeste 21 Sudoeste 0 -- -- 61
2018-10-12 15:00:00 16.6 12 Sudoeste 23 Oeste 0 -- -- 63
2018-10-12 14:00:00 15.8 14 Sudoeste 30 Sudoeste 0 -- -- 65
2018-10-12 13:00:00 15.2 13 Sudoeste 27 Sudoeste 0 -- -- 68
2018-10-12 12:00:00 14.1 13 Sur 26 Sudoeste 0 -- -- 74
2018-10-12 11:00:00 13.4 15 Sudoeste 27 Sudoeste 0 -- -- 75
2018-10-12 10:00:00 10.1 3 Sudoeste 9 Sudoeste 0 -- -- 96
2018-10-12 09:00:00 9.4 0 Calma 10 Sudeste 0 -- -- 93
2018-10-12 08:00:00 9.2 0 Calma 4 Norte 0 -- -- 93
2018-10-12 07:00:00 8.8 2 Nordeste 8 Nordeste 0 -- -- 94
2018-10-12 06:00:00 9.2 2 Sudeste 10 Sudeste 0 -- -- 92
2018-10-12 05:00:00 9.9 6 Sur 13 Sur 0 -- -- 88
2018-10-12 04:00:00 10.3 5 Sur 14 Sur 0 -- -- 90
2018-10-12 03:00:00 10.6 3 Sur 10 Sudoeste 0 -- -- 91
2018-10-12 02:00:00 11.2 4 Sudoeste 14 Sudoeste 0 -- -- 93
2018-10-12 01:00:00 10.8 5 Sudeste 10 Este 0 -- -- 93
2018-10-12 00:00:00 10.3 3 Este 8 Oeste 0 -- -- 94
2018-10-11 23:00:00 11.7 5 Oeste 15 Sur 0 -- -- 90
2018-10-11 22:00:00 12.6 10 Sur 18 Sudoeste 0 -- -- 87
2018-10-11 21:00:00 13.7 6 Sur 14 Sudoeste 0 -- -- 79
2018-10-11 20:00:00 14.7 9 Sur 23 Sudoeste 0 -- -- 75
2018-10-11 19:00:00 15.9 14 Sudoeste 31 Sudoeste 0 -- -- 66
2018-10-11 18:00:00 17.1 17 Sudoeste 40 Sudoeste 0 -- -- 62
2018-10-11 17:00:00 17 21 Sudoeste 37 Sudoeste 0 -- -- 63
2018-10-11 16:00:00 15.8 16 Sudoeste 31 Sudoeste 0 -- -- 74
2018-10-11 15:00:00 15.1 14 Sudoeste 31 Sudoeste 0 -- -- 85
2018-10-11 14:00:00 14.1 17 Sudoeste 33 Sudoeste 0.6 -- -- 91
2018-10-11 13:00:00 13.4 18 Sudoeste 41 Sur 0.8 -- -- 91
2018-10-11 12:00:00 13.3 17 Sur 36 Sur 0 -- -- 89
2018-10-11 11:00:00 12.8 18 Sur 34 Sur 0.2 -- -- 92
2018-10-11 10:00:00 12.3 13 Sur 26 Sudoeste 0.6 -- -- 91
2018-10-11 09:00:00 12.6 13 Sudoeste 29 Sudoeste 0 -- -- 86
2018-10-11 08:00:00 12.6 14 Sur 32 Sur 0 -- -- 81
2018-10-11 07:00:00 12.9 16 Sur 28 Sudoeste 0 -- -- 78
2018-10-11 06:00:00 12.9 15 Sur 27 Sudoeste 0 -- -- 74
2018-10-11 05:00:00 12.8 11 Sur 23 Sudeste 0 -- -- 70
2018-10-11 04:00:00 12.7 12 Sudeste 26 Sudeste 0 -- -- 70
2018-10-11 03:00:00 12.7 11 Sudeste 17 Sudeste 0 -- -- 71
2018-10-11 02:00:00 11.4 4 Sudeste 11 Sudoeste 0 -- -- 73
2018-10-11 01:00:00 12.3 3 Sur 19 Sudoeste 0 -- -- 69
2018-10-11 00:00:00 12.9 12 Sudoeste 23 Sudoeste 0 -- -- 67
2018-10-10 23:00:00 13.6 13 Sudoeste 26 Sur 0 -- -- 65
2018-10-10 22:00:00 14.5 14 Sudoeste 28 Sur 0 -- -- 62
2018-10-10 21:00:00 16.2 17 Sudoeste 31 Sudoeste 0 -- -- 55
2018-10-10 20:00:00 16 6 Sur 18 Sudoeste 0 -- -- 50
2018-10-10 19:00:00 17.1 7 Sudoeste 26 Sudoeste 0 -- -- 45
2018-10-10 18:00:00 18.4 15 Sudoeste 32 Oeste 0 -- -- 42
2018-10-10 17:00:00 18 12 Sudoeste 21 Sur 0 -- -- 46
2018-10-10 16:00:00 16.5 11 Sudoeste 20 Oeste 0 -- -- 51
2018-10-10 15:00:00 14.8 8 Oeste 15 Sudeste 0 -- -- 59
2018-10-10 14:00:00 13.8 5 Sur 15 Oeste 0 -- -- 63
2018-10-10 13:00:00 12.7 6 Sur 15 Sur 0 -- -- 66
2018-10-10 12:00:00 11.9 5 Sur 14 Sudeste 0 -- -- 69
2018-10-10 11:00:00 11.2 6 Sudeste 13 Sudeste 0 -- -- 73
2018-10-10 10:00:00 9.1 5 Norte 10 Este 0 -- -- 82
2018-10-10 09:00:00 8.5 6 Este 14 Sudeste 0 -- -- 83
2018-10-10 08:00:00 8.2 4 Este 13 Este 0 -- -- 84
2018-10-10 07:00:00 7.5 3 Norte 11 Nordeste 0 -- -- 85
2018-10-10 06:00:00 7 3 Este 7 Nordeste 0 -- -- 84
2018-10-10 05:00:00 6.4 3 Este 17 Nordeste 0 -- -- 80
2018-10-10 04:00:00 6.3 6 Este 15 Este 0 -- -- 81
2018-10-10 03:00:00 8.1 12 Este 19 Este 0 -- -- 77
2018-10-10 02:00:00 8.5 12 Este 23 Este 0 -- -- 74
2018-10-10 01:00:00 8.8 9 Este 17 Este 0 -- -- 71
2018-10-10 00:00:00 10.2 5 Este 12 Este 0 -- -- 59
2018-10-09 23:00:00 12 6 Este 21 Sudeste 0 -- -- 56
2018-10-09 22:00:00 11.2 12 Este 21 Este 0 -- -- 58
2018-10-09 21:00:00 12.2 10 Sudeste 24 Sudeste 0 -- -- 54
2018-10-09 20:00:00 14.7 15 Sudeste 30 Sudeste 0 -- -- 46
2018-10-09 19:00:00 17.3 9 Sudeste 23 Sudeste 0 -- -- 38
2018-10-09 18:00:00 17.8 17 Sudeste 28 Sudeste 0 -- -- 37
2018-10-09 17:00:00 18.3 15 Sudeste 31 Sudeste 0 -- -- 35
2018-10-09 16:00:00 18.3 8 Sur 37 Sudeste 0 -- -- 37
2018-10-09 15:00:00 17.9 12 Sudeste 23 Sudeste 0 -- -- 37
2018-10-09 14:00:00 16.8 11 Este 20 Sudeste 0 -- -- 42
2018-10-09 13:00:00 15.6 7 Sudeste 17 Este 0 -- -- 51
2018-10-09 12:00:00 14 6 Este 15 Sudeste 0 -- -- 57
2018-10-09 11:00:00 10.6 8 Norte 14 Norte 0 -- -- 74
2018-10-09 10:00:00 6.3 9 Nordeste 14 Nordeste 0 -- -- 88
2018-10-09 09:00:00 3.1 6 Nordeste 13 Nordeste 0 -- -- 94
2018-10-09 08:00:00 3.2 6 Nordeste 9 Nordeste 0 -- -- 96
2018-10-09 07:00:00 3.3 4 Nordeste 7 Nordeste 0 -- -- 93
2018-10-09 06:00:00 4.1 4 Nordeste 11 Nordeste 0 -- -- 89
2018-10-09 05:00:00 5.4 9 Nordeste 13 Nordeste 0 -- -- 94
2018-10-09 04:00:00 3.6 3 Nordeste 9 Norte 0 -- -- 89
2018-10-09 03:00:00 4.4 3 Nordeste 10 Nordeste 0 -- -- 87
2018-10-09 02:00:00 5.1 3 Nordeste 12 Nordeste 0 -- -- 84
2018-10-09 01:00:00 5.3 6 Este 11 Este 0 -- -- 83
2018-10-09 00:00:00 7.2 3 Nordeste 12 Nordeste 0 -- -- 77
2018-10-08 23:00:00 7.4 8 Nordeste 9 Este 0 -- -- 76
2018-10-08 22:00:00 10.5 3 Norte 17 Sudeste 0 -- -- 67
2018-10-08 21:00:00 11.9 10 Este 24 Este 0 -- -- 62
2018-10-08 20:00:00 13.4 13 Sudeste 27 Sudeste 0 -- -- 55
2018-10-08 19:00:00 16 15 Sudeste 28 Sudeste 0 -- -- 48
2018-10-08 18:00:00 17.2 14 Sudeste 28 Sudeste 0 -- -- 45
2018-10-08 17:00:00 17.8 15 Sudeste 28 Sudeste 0 -- -- 45
2018-10-08 16:00:00 17.4 7 Sur 32 Norte 0 -- -- 47
2018-10-08 15:00:00 18 6 Este 19 Este 0 -- -- 45
2018-10-08 14:00:00 17.4 9 Sudeste 19 Este 0 -- -- 45
2018-10-08 13:00:00 16.2 5 Sur 22 Sudeste 0 -- -- 49
2018-10-08 12:00:00 14.5 5 Sudoeste 12 Oeste 0 -- -- 54
2018-10-08 11:00:00 11.5 0 Calma 8 Norte 0 -- -- 65
2018-10-08 10:00:00 6.1 5 Nordeste 9 Nordeste 0 -- -- 83
2018-10-08 09:00:00 1 5 Nordeste 7 Nordeste 0 -- -- 95
2018-10-08 08:00:00 0 5 Nordeste 7 Nordeste 0 -- -- 90
2018-10-08 07:00:00 1.1 4 Nordeste 7 Este 0 -- -- 94
2018-10-08 06:00:00 -0.1 3 Nordeste 9 Este 0 -- -- 92
2018-10-08 05:00:00 0 3 Nordeste 6 Nordeste 0 -- -- 90
2018-10-08 04:00:00 0.5 4 Nordeste 9 Este 0 -- -- 87
2018-10-08 03:00:00 1.6 2 Sudeste 3 Sudeste 0 -- -- 85
2018-10-08 02:00:00 4.1 4 Este 10 Este 0 -- -- 81
2018-10-08 01:00:00 4.4 7 Este 14 Nordeste 0 -- -- 81
2018-10-08 00:00:00 6.7 11 Nordeste 19 Nordeste 0 -- -- 75
2018-10-07 23:00:00 7.3 10 Norte 23 Nordeste 0 -- -- 73
2018-10-07 22:00:00 8 18 Nordeste 25 Norte 0 -- -- 69
2018-10-07 21:00:00 8.1 14 Nordeste 39 Nordeste 0 -- -- 67
2018-10-07 20:00:00 9.3 21 Nordeste 37 Norte 0 -- -- 60
2018-10-07 19:00:00 11 23 Nordeste 41 Nordeste 0 -- -- 54
2018-10-07 18:00:00 12.3 24 Nordeste 36 Nordeste 0 -- -- 49
2018-10-07 17:00:00 13.3 21 Norte 38 Nordeste 0 -- -- 48
2018-10-07 16:00:00 12.9 23 Nordeste 36 Nordeste 0 -- -- 49
2018-10-07 15:00:00 13.3 21 Norte 41 Nordeste 0 -- -- 46
2018-10-07 14:00:00 12.4 26 Norte 38 Nordeste 0 -- -- 47
2018-10-07 13:00:00 12 18 Norte 37 Nordeste 0 -- -- 50
2018-10-07 12:00:00 10.6 19 Nordeste 35 Nordeste 0 -- -- 56
2018-10-07 11:00:00 9.9 23 Norte 31 Norte 0 -- -- 59
2018-10-07 10:00:00 7.6 6 Norte 18 Nordeste 0 -- -- 68
2018-10-07 09:00:00 3.4 4 Sudoeste 7 Sur 0 -- -- 84
2018-10-07 08:00:00 3.1 0 Calma 8 Este 0 -- -- 84
2018-10-07 07:00:00 0.4 2 Este 6 Este 0 -- -- 84
2018-10-07 06:00:00 3.6 3 Oeste 19 Norte 0 -- -- 73
2018-10-07 05:00:00 5.5 10 Norte 27 Norte 0 -- -- 71
2018-10-07 04:00:00 5.9 18 Norte 26 Nordeste 0 -- -- 68
2018-10-07 03:00:00 6.1 3 Nordeste 36 Norte 0 -- -- 66
2018-10-07 02:00:00 6.7 22 Norte 36 Norte 0 -- -- 72
2018-10-07 01:00:00 7.4 17 Norte 26 Norte 0 -- -- 70
2018-10-07 00:00:00 8 13 Norte 33 Noroeste 0 -- -- 68
2018-10-06 23:00:00 8.1 13 Norte 27 Norte 0 -- -- 68
2018-10-06 22:00:00 8.4 3 Noroeste 20 Nordeste 0 -- -- 65
2018-10-06 21:00:00 9.2 7 Norte 27 Norte 0 -- -- 63
2018-10-06 20:00:00 10.8 19 Norte 38 Norte 0 -- -- 59
2018-10-06 19:00:00 12.8 28 Norte 41 Norte 0 -- -- 55
2018-10-06 18:00:00 17.2 24 Oeste 41 Oeste 0 -- -- 53
2018-10-06 17:00:00 17.1 27 Noroeste 46 Oeste 0 -- -- 52
2018-10-06 16:00:00 19.1 26 Oeste 41 Oeste 0 -- -- 44
2018-10-06 15:00:00 19.5 24 Oeste 40 Oeste 0 -- -- 45
2018-10-06 14:00:00 19.9 15 Sudoeste 28 Sudoeste 0 -- -- 41
2018-10-06 13:00:00 18.8 12 Sudoeste 23 Oeste 0 -- -- 41
2018-10-06 12:00:00 16.6 8 Sudoeste 17 Sudoeste 0 -- -- 44
2018-10-06 11:00:00 12.3 3 Noroeste 8 Noroeste 0 -- -- 64
2018-10-06 10:00:00 8.1 0 Calma 4 Nordeste 0 -- -- 77
2018-10-06 09:00:00 3 3 Este 6 Este 0 -- -- 90
2018-10-06 08:00:00 2.9 3 Nordeste 5 Nordeste 0 -- -- 86
2018-10-06 07:00:00 3 2 Nordeste 6 Nordeste 0 -- -- 86
2018-10-06 06:00:00 3.7 3 Nordeste 4 Nordeste 0 -- -- 84
2018-10-06 05:00:00 4.6 3 Nordeste 4 Este 0 -- -- 81
2018-10-06 04:00:00 4.8 3 Este 4 Nordeste 0 -- -- 79
2018-10-06 03:00:00 6 3 Nordeste 8 Nordeste 0 -- -- 74
2018-10-06 02:00:00 7 5 Este 7 Nordeste 0 -- -- 70
2018-10-06 01:00:00 8 4 Nordeste 6 Este 0 -- -- 66
2018-10-06 00:00:00 9.6 3 Nordeste 4 Nordeste 0 -- -- 60
2018-10-05 23:00:00 12 0 Calma 6 Sur 0 -- -- 52
2018-10-05 22:00:00 14.2 2 Este 11 Sudeste 0 -- -- 48
2018-10-05 21:00:00 17.2 9 Sudeste 12 Sudeste 0 -- -- 41
2018-10-05 20:00:00 19.5 5 Sur 10 Sudoeste 0 -- -- 40
2018-10-05 19:00:00 24.6 6 Sudoeste 14 Oeste 0 -- -- 29
2018-10-05 18:00:00 25.1 8 Sudoeste 19 Sudoeste 0 -- -- 26
2018-10-05 17:00:00 25 10 Sudoeste 22 Sudoeste 0 -- -- 27
2018-10-05 16:00:00 25 13 Sudoeste 21 Oeste 0 -- -- 27
2018-10-05 15:00:00 24.6 11 Sudoeste 23 Sudoeste 0 -- -- 31
2018-10-05 14:00:00 23.5 9 Sudoeste 20 Sudoeste 0 -- -- 28
2018-10-05 13:00:00 22.2 7 Sur 14 Sudoeste 0 -- -- 28
2018-10-05 12:00:00 19.8 0 Calma 8 Norte 0 -- -- 41
2018-10-05 11:00:00 15.3 3 Nordeste 7 Nordeste 0 -- -- 50
2018-10-05 10:00:00 10.9 4 Nordeste 13 Nordeste 0 -- -- 59
2018-10-05 09:00:00 5.7 4 Nordeste 8 Nordeste 0 -- -- 73
2018-10-05 08:00:00 5.4 4 Nordeste 9 Nordeste 0 -- -- 73
2018-10-05 07:00:00 5.4 6 Nordeste 8 Nordeste 0 -- -- 71
2018-10-05 06:00:00 5.7 5 Nordeste 9 Nordeste 0 -- -- 70
2018-10-05 05:00:00 6.4 4 Nordeste 7 Nordeste 0 -- -- 70
2018-10-05 04:00:00 7 5 Nordeste 8 Nordeste 0 -- -- 69
2018-10-05 03:00:00 7.9 3 Nordeste 10 Nordeste 0 -- -- 67
2018-10-05 02:00:00 8.8 4 Nordeste 8 Nordeste 0 -- -- 67
2018-10-05 01:00:00 8.2 5 Nordeste 7 Nordeste 0 -- -- 68
2018-10-05 00:00:00 8.9 3 Este 7 Nordeste 0 -- -- 63
2018-10-04 23:00:00 10.4 6 Este 9 Este 0 -- -- 56
2018-10-04 22:00:00 12.1 6 Este 8 Este 0 -- -- 49
2018-10-04 21:00:00 14.8 0 Calma 7 Sur 0 -- -- 43
2018-10-04 20:00:00 21.4 4 Sudoeste 13 Oeste 0 -- -- 36
2018-10-04 19:00:00 25.4 7 Sudoeste 14 Oeste 0 -- -- 27
2018-10-04 18:00:00 26 9 Sudoeste 21 Sudoeste 0 -- -- 26
2018-10-04 17:00:00 26.3 11 Oeste 19 Sudoeste 0 -- -- 27
2018-10-04 16:00:00 25.6 8 Sudoeste 17 Oeste 0 -- -- 28
2018-10-04 15:00:00 24.5 8 Sudoeste 22 Sudoeste 0 -- -- 30
2018-10-04 14:00:00 23.3 6 Sudoeste 18 Sudoeste 0 -- -- 34
2018-10-04 13:00:00 21.2 9 Sudoeste 17 Sudoeste 0 -- -- 39
2018-10-04 12:00:00 19.2 7 Sudoeste 12 Sudoeste 0 -- -- 42
2018-10-04 11:00:00 15.2 2 Nordeste 10 Norte 0 -- -- 50
2018-10-04 10:00:00 11 7 Nordeste 12 Nordeste 0 -- -- 59
2018-10-04 09:00:00 4.7 4 Nordeste 9 Nordeste 0 -- -- 83
2018-10-04 08:00:00 4.1 6 Nordeste 8 Este 0 -- -- 83
2018-10-04 07:00:00 4.2 7 Nordeste 10 Nordeste 0 -- -- 83
2018-10-04 06:00:00 3.9 5 Este 6 Este 0 -- -- 84
2018-10-04 05:00:00 5.5 2 Nordeste 8 Nordeste 0 -- -- 78
2018-10-04 04:00:00 5.6 3 Este 5 Nordeste 0 -- -- 79
2018-10-04 03:00:00 7.9 0 Calma 11 Nordeste 0 -- -- 73
2018-10-04 02:00:00 7.6 5 Este 11 Este 0 -- -- 77
2018-10-04 01:00:00 9.4 8 Este 12 Este 0 -- -- 71
2018-10-04 00:00:00 10.6 3 Sur 8 Norte 0 -- -- 68
2018-10-03 23:00:00 14 8 Nordeste 12 Nordeste 0 -- -- 59
2018-10-03 22:00:00 15 6 Nordeste 10 Nordeste 0 -- -- 54
2018-10-03 21:00:00 17 4 Nordeste 19 Este 0 -- -- 48
2018-10-03 20:00:00 20.1 11 Sudeste 26 Sudeste 0 -- -- 43
2018-10-03 19:00:00 22.9 16 Este 33 Este 0 -- -- 34
2018-10-03 18:00:00 24.3 17 Este 40 Este 0 -- -- 32
2018-10-03 17:00:00 24.8 19 Este 42 Este 0 -- -- 33
2018-10-03 16:00:00 24.9 19 Este 40 Sudeste 0 -- -- 31
2018-10-03 15:00:00 24.6 19 Sudeste 36 Sudeste 0 -- -- 34
2018-10-03 14:00:00 23.6 23 Este 39 Este 0 -- -- 36
2018-10-03 13:00:00 22.4 23 Este 39 Este 0 -- -- 42
2018-10-03 12:00:00 21.2 25 Este 40 Este 0 -- -- 45
2018-10-03 11:00:00 18.5 17 Este 33 Este 0 -- -- 53
2018-10-03 10:00:00 11.1 9 Nordeste 14 Nordeste 0 -- -- 62
2018-10-03 09:00:00 7.5 10 Nordeste 15 Nordeste 0 -- -- 73
2018-10-03 08:00:00 4.8 5 Nordeste 8 Nordeste 0 -- -- 78
2018-10-03 07:00:00 5.6 5 Nordeste 9 Nordeste 0 -- -- 74
2018-10-03 06:00:00 5.8 5 Nordeste 8 Nordeste 0 -- -- 70
2018-10-03 05:00:00 8.2 4 Nordeste 21 Norte 0 -- -- 61
2018-10-03 04:00:00 8 12 Nordeste 15 Nordeste 0 -- -- 61
2018-10-03 03:00:00 7.3 5 Nordeste 13 Nordeste 0 -- -- 58
2018-10-03 02:00:00 7.4 7 Nordeste 10 Este 0 -- -- 56
2018-10-03 01:00:00 8 6 Nordeste 18 Este 0 -- -- 55
2018-10-03 00:00:00 9 5 Este 13 Nordeste 0 -- -- 51
2018-10-02 23:00:00 11.9 7 Nordeste 21 Nordeste 0 -- -- 39
2018-10-02 22:00:00 13.7 5 Nordeste 19 Este 0 -- -- 36
2018-10-02 21:00:00 15.3 9 Este 18 Nordeste 0 -- -- 34
2018-10-02 20:00:00 17.2 7 Sudeste 29 Este 0 -- -- 33
2018-10-02 19:00:00 20.7 17 Sudeste 27 Sudeste 0 -- -- 26
2018-10-02 18:00:00 22.9 14 Sudeste 23 Este 0 -- -- 21
2018-10-02 17:00:00 22.9 9 Este 27 Sudeste 0 -- -- 21
2018-10-02 16:00:00 22.3 11 Este 25 Este 0 -- -- 21
2018-10-02 15:00:00 20.7 6 Norte 27 Este 0 -- -- 26
2018-10-02 14:00:00 18.8 7 Oeste 19 Oeste 0 -- -- 29
2018-10-02 13:00:00 15.6 5 Oeste 13 Noroeste 0 -- -- 45
2018-10-02 12:00:00 12.3 4 Noroeste 10 Noroeste 0 -- -- 59
2018-10-02 11:00:00 9.2 3 Norte 6 Norte 0 -- -- 69
2018-10-02 10:00:00 4.7 2 Nordeste 7 Nordeste 0 -- -- 84
2018-10-02 09:00:00 0.5 2 Este 7 Este 0 -- -- 93
2018-10-02 08:00:00 -0.3 3 Nordeste 6 Nordeste 0 -- -- 92
2018-10-02 07:00:00 0.2 2 Este 6 Este 0 -- -- 91
2018-10-02 06:00:00 0.4 0 Calma 5 Este 0 -- -- 89
2018-10-02 05:00:00 0.6 3 Este 6 Este 0 -- -- 87
2018-10-02 04:00:00 1.4 0 Calma 5 Este 0 -- -- 88
2018-10-02 03:00:00 3.1 2 Oeste 5 Oeste 0 -- -- 86
2018-10-02 02:00:00 4.8 2 Noroeste 8 Este 0 -- -- 82
2018-10-02 01:00:00 5.5 4 Sur 6 Sur 0 -- -- 78
2018-10-02 00:00:00 8.1 2 Este 13 Este 0 -- -- 73
2018-10-01 23:00:00 9 6 Este 15 Este 0 -- -- 71
2018-10-01 22:00:00 10.1 11 Este 19 Este 0 -- -- 69
2018-10-01 21:00:00 12 11 Este 21 Este 0 -- -- 62
2018-10-01 20:00:00 14.2 14 Sudeste 21 Sudeste 0 -- -- 56
2018-10-01 19:00:00 17.8 14 Sudeste 22 Sudeste 0 -- -- 45
2018-10-01 18:00:00 19.9 13 Sudeste 23 Sudeste 0 -- -- 39
2018-10-01 17:00:00 21.2 7 Este 14 Sudeste 0 -- -- 36
2018-10-01 16:00:00 21 3 Norte 13 Norte 0 -- -- 30
2018-10-01 15:00:00 19.7 5 Nordeste 17 Oeste 0 -- -- 35
2018-10-01 14:00:00 18.8 6 Noroeste 14 Este 0 -- -- 39
2018-10-01 13:00:00 17.2 5 Norte 14 Noroeste 0 -- -- 45
2018-10-01 12:00:00 15.5 4 Norte 13 Norte 0 -- -- 50
2018-10-01 11:00:00 14 4 Nordeste 12 Nordeste 0 -- -- 54
2018-10-01 10:00:00 9.8 0 Calma 2 Sudeste 0 -- -- 76
2018-10-01 09:00:00 3.6 0 Calma 5 Sur 0 -- -- 87
2018-10-01 08:00:00 3.9 4 Este 5 Sur 0 -- -- 88
2018-10-01 07:00:00 4.2 4 Este 9 Este 0 -- -- 85
2018-10-01 06:00:00 4.5 5 Este 9 Este 0 -- -- 82
2018-10-01 05:00:00 4.5 9 Este 10 Este 0 -- -- 80
2018-10-01 04:00:00 4.3 4 Sudeste 7 Este 0 -- -- 77
2018-10-01 03:00:00 4.8 4 Este 7 Este 0 -- -- 73
2018-10-01 02:00:00 7.1 3 Sudeste 4 Este 0 -- -- 63
2018-10-01 01:00:00 10.7 0 Calma 9 Sudeste 0 -- -- 51
2018-10-01 00:00:00 10.9 6 Sudeste 9 Este 0 -- -- 54
2018-09-30 23:00:00 11.9 6 Nordeste 12 Nordeste 0 -- -- 46
2018-09-30 22:00:00 14.1 3 Este 13 Norte 0 -- -- 41
2018-09-30 21:00:00 17 7 Nordeste 22 Nordeste 0 -- -- 41
2018-09-30 20:00:00 20.2 14 Nordeste 26 Norte 0 -- -- 40
2018-09-30 19:00:00 23.5 16 Nordeste 27 Nordeste 0 -- -- 32
2018-09-30 18:00:00 26.1 12 Noroeste 23 Oeste 0 -- -- 25
2018-09-30 17:00:00 26.5 8 Oeste 20 Sudoeste 0 -- -- 28
2018-09-30 16:00:00 25.6 11 Sudoeste 24 Oeste 0 -- -- 32
2018-09-30 15:00:00 24.5 11 Sudoeste 24 Sur 0 -- -- 35
2018-09-30 14:00:00 22.9 9 Sudoeste 19 Sudoeste 0 -- -- 43
2018-09-30 13:00:00 21.5 9 Sudoeste 18 Sudoeste 0 -- -- 49
2018-09-30 12:00:00 19.6 8 Oeste 13 Oeste 0 -- -- 56
2018-09-30 11:00:00 16.6 2 Norte 13 Nordeste 0 -- -- 62
2018-09-30 10:00:00 11.2 5 Nordeste 11 Norte 0 -- -- 82
2018-09-30 09:00:00 6.4 3 Este 6 Nordeste 0 -- -- 95
2018-09-30 08:00:00 5.7 3 Nordeste 5 Nordeste 0 -- -- 92
2018-09-30 07:00:00 5.9 4 Este 6 Este 0 -- -- 92
2018-09-30 06:00:00 6.6 2 Este 5 Este 0 -- -- 92
2018-09-30 05:00:00 7.6 0 Calma 12 Nordeste 0 -- -- 88
2018-09-30 04:00:00 8 2 Este 7 Este 0 -- -- 87
2018-09-30 03:00:00 9.5 5 Nordeste 9 Nordeste 0 -- -- 88
2018-09-30 02:00:00 10 6 Este 8 Este 0 -- -- 85
2018-09-30 01:00:00 10.8 3 Este 6 Nordeste 0 -- -- 82
2018-09-30 00:00:00 13.5 0 Calma 12 Este 0 -- -- 77
2018-09-29 23:00:00 15.9 10 Este 13 Este 0 -- -- 72
2018-09-29 22:00:00 17.4 4 Este 13 Este 0 -- -- 66
2018-09-29 21:00:00 19.2 9 Este 19 Este 0 -- -- 61
2018-09-29 20:00:00 22.1 11 Este 21 Sudeste 0 -- -- 55
2018-09-29 19:00:00 24.1 4 Norte 13 Noroeste 0 -- -- 41
2018-09-29 18:00:00 24.5 6 Noroeste 18 Oeste 0 -- -- 42
2018-09-29 17:00:00 26 11 Noroeste 24 Oeste 0 -- -- 36
2018-09-29 16:00:00 26.6 6 Oeste 20 Oeste 0 -- -- 34
2018-09-29 15:00:00 25.7 5 Nordeste 15 Norte 0 -- -- 33
2018-09-29 14:00:00 25 9 Noroeste 17 Oeste 0 -- -- 39
2018-09-29 13:00:00 23.4 5 Norte 15 Noroeste 0 -- -- 44
2018-09-29 12:00:00 21.8 5 Norte 11 Norte 0 -- -- 51
2018-09-29 11:00:00 18.6 8 Norte 14 Nordeste 0 -- -- 62
2018-09-29 10:00:00 14.4 7 Nordeste 13 Nordeste 0 -- -- 76
2018-09-29 09:00:00 11.4 5 Nordeste 12 Nordeste 0 -- -- 85
2018-09-29 08:00:00 12.4 10 Nordeste 14 Nordeste 0 -- -- 84
2018-09-29 07:00:00 12.5 9 Nordeste 13 Nordeste 0 -- -- 81
2018-09-29 06:00:00 13.1 10 Nordeste 12 Nordeste 0 -- -- 81
2018-09-29 05:00:00 14.9 7 Nordeste 15 Nordeste 0 -- -- 76
2018-09-29 04:00:00 16.7 9 Nordeste 17 Este 0 -- -- 69
2018-09-29 03:00:00 18.3 10 Este 20 Nordeste 0 -- -- 59
2018-09-29 02:00:00 18.4 9 Este 19 Este 0 -- -- 58
2018-09-29 01:00:00 18.2 12 Este 22 Este 0 -- -- 59
2018-09-29 00:00:00 18.1 13 Este 22 Nordeste 0 -- -- 60
2018-09-28 23:00:00 18.8 14 Este 21 Este 0 -- -- 59
2018-09-28 22:00:00 19.5 14 Este 22 Este 0 -- -- 58
2018-09-28 21:00:00 20.3 11 Este 22 Este 0 -- -- 56
2018-09-28 20:00:00 22 15 Nordeste 22 Este 0 -- -- 50
2018-09-28 19:00:00 23.9 15 Nordeste 26 Nordeste 0 -- -- 47
2018-09-28 18:00:00 26 8 Este 14 Nordeste 0 -- -- 36
2018-09-28 17:00:00 25.8 10 Nordeste 22 Sudeste 0 -- -- 37
2018-09-28 16:00:00 27.9 9 Sur 18 Sudoeste 0 -- -- 34
2018-09-28 15:00:00 26.9 5 Este 26 Sur 0 -- -- 36
2018-09-28 14:00:00 25.8 4 Nordeste 17 Sudeste 0 -- -- 38
2018-09-28 13:00:00 25.2 8 Sur 19 Sudeste 0 -- -- 40
2018-09-28 12:00:00 23.8 8 Sudeste 19 Sur 0 -- -- 46
2018-09-28 11:00:00 19.5 5 Nordeste 12 Nordeste 0 -- -- 62
2018-09-28 10:00:00 15.5 6 Nordeste 15 Nordeste 0 -- -- 76
2018-09-28 09:00:00 12 6 Nordeste 11 Nordeste 0 -- -- 90
2018-09-28 08:00:00 11.6 4 Nordeste 12 Nordeste 0 -- -- 87
2018-09-28 07:00:00 12.6 10 Nordeste 15 Nordeste 0 -- -- 87
2018-09-28 06:00:00 12.2 9 Nordeste 13 Nordeste 0 -- -- 87
2018-09-28 05:00:00 12.7 5 Este 10 Este 0 -- -- 86
2018-09-28 04:00:00 12.9 6 Nordeste 9 Nordeste 0 -- -- 82
2018-09-28 03:00:00 13.6 6 Este 8 Este 0 -- -- 80
2018-09-28 02:00:00 15.5 4 Nordeste 10 Nordeste 0 -- -- 72
2018-09-28 01:00:00 17.3 6 Nordeste 12 Este 0 -- -- 67
2018-09-28 00:00:00 18.1 9 Este 15 Este 0 -- -- 63
2018-09-27 23:00:00 19.8 9 Este 16 Sudeste 0 -- -- 60
2018-09-27 22:00:00 18.4 4 Este 13 Este 0 -- -- 61
2018-09-27 21:00:00 19.3 3 Sur 7 Oeste 0 -- -- 59
2018-09-27 20:00:00 24.3 6 Sudoeste 16 Oeste 0 -- -- 45
2018-09-27 19:00:00 27 12 Oeste 19 Sudoeste 0 -- -- 36
2018-09-27 18:00:00 27.7 11 Sudoeste 19 Oeste 0 -- -- 35
2018-09-27 17:00:00 28.3 6 Oeste 17 Oeste 0 -- -- 35
2018-09-27 16:00:00 27.2 7 Oeste 16 Sudoeste 0 -- -- 37
2018-09-27 15:00:00 26.3 7 Sudoeste 16 Oeste 0 -- -- 41
2018-09-27 14:00:00 25.1 5 Sudoeste 19 Oeste 0 -- -- 45
2018-09-27 13:00:00 23.5 6 Sudoeste 15 Oeste 0 -- -- 54
2018-09-27 12:00:00 20.6 6 Noroeste 12 Noroeste 0 -- -- 63
2018-09-27 11:00:00 18.8 2 Norte 6 Nordeste 0 -- -- 67
2018-09-27 10:00:00 14.6 3 Nordeste 5 Norte 0 -- -- 78
2018-09-27 09:00:00 10.8 3 Nordeste 6 Nordeste 0 -- -- 92
2018-09-27 08:00:00 10.5 5 Nordeste 9 Nordeste 0 -- -- 89
2018-09-27 07:00:00 10.7 4 Este 6 Este 0 -- -- 88
2018-09-27 06:00:00 11.6 6 Nordeste 10 Norte 0 -- -- 84
2018-09-27 05:00:00 12.2 8 Nordeste 10 Nordeste 0 -- -- 83
2018-09-27 04:00:00 11.8 3 Norte 7 Norte 0 -- -- 85
2018-09-27 03:00:00 11.4 3 Este 6 Nordeste 0 -- -- 85
2018-09-27 02:00:00 11.9 0 Calma 7 Nordeste 0 -- -- 81
2018-09-27 01:00:00 13.1 4 Nordeste 10 Nordeste 0 -- -- 81
2018-09-27 00:00:00 13.9 5 Nordeste 8 Nordeste 0 -- -- 76
2018-09-26 23:00:00 15.2 5 Este 9 Nordeste 0 -- -- 72
2018-09-26 22:00:00 17.1 0 Calma 18 Sur 0 -- -- 63
2018-09-26 21:00:00 17.7 0 Calma 6 Sudoeste 0 -- -- 60
2018-09-26 20:00:00 24.8 4 Sudoeste 11 Oeste 0 -- -- 43
2018-09-26 19:00:00 26.9 4 Oeste 14 Oeste 0 -- -- 37
2018-09-26 18:00:00 27 7 Sudoeste 20 Oeste 0 -- -- 35
2018-09-26 17:00:00 26.5 12 Sudoeste 21 Sudoeste 0 -- -- 35
2018-09-26 16:00:00 26.1 8 Sur 21 Sudoeste 0 -- -- 37
2018-09-26 15:00:00 25 9 Sur 19 Sudoeste 0 -- -- 42
2018-09-26 14:00:00 24 6 Sudeste 19 Sudeste 0 -- -- 42
2018-09-26 13:00:00 22 8 Sur 23 Sudeste 0 -- -- 36
2018-09-26 12:00:00 19.4 6 Este 15 Sudeste 0 -- -- 51
2018-09-26 11:00:00 17.2 10 Sudeste 17 Este 0 -- -- 59
2018-09-26 10:00:00 11.6 5 Nordeste 10 Nordeste 0 -- -- 63
2018-09-26 09:00:00 5.9 3 Nordeste 7 Nordeste 0 -- -- 81
2018-09-26 08:00:00 4.6 3 Este 12 Nordeste 0 -- -- 81
2018-09-26 07:00:00 4.8 6 Nordeste 10 Nordeste 0 -- -- 83
2018-09-26 06:00:00 4.6 4 Nordeste 5 Nordeste 0 -- -- 80
2018-09-26 05:00:00 5.8 4 Nordeste 8 Nordeste 0 -- -- 75
2018-09-26 04:00:00 7.9 3 Nordeste 13 Nordeste 0 -- -- 67
2018-09-26 03:00:00 8.3 11 Nordeste 13 Nordeste 0 -- -- 66
2018-09-26 02:00:00 7.3 6 Nordeste 10 Nordeste 0 -- -- 71
2018-09-26 01:00:00 7.1 3 Nordeste 7 Nordeste 0 -- -- 67
2018-09-26 00:00:00 10.3 2 Nordeste 15 Este 0 -- -- 56
2018-09-25 23:00:00 13.2 10 Este 17 Nordeste 0 -- -- 48
2018-09-25 22:00:00 14.7 7 Nordeste 22 Sudeste 0 -- -- 43
2018-09-25 21:00:00 16 14 Sudeste 21 Sudeste 0 -- -- 41
2018-09-25 20:00:00 20 13 Sudeste 21 Sudeste 0 -- -- 27
2018-09-25 19:00:00 23.2 8 Sudeste 17 Sudeste 0 -- -- 19
2018-09-25 18:00:00 24.1 8 Sur 18 Sur 0 -- -- 17
2018-09-25 17:00:00 24 8 Sur 18 Sur 0 -- -- 17
2018-09-25 16:00:00 22.9 9 Sudeste 22 Este 0 -- -- 17
2018-09-25 15:00:00 22.9 6 Sur 20 Este 0 -- -- 17
2018-09-25 14:00:00 21.4 9 Sudeste 20 Sur 0 -- -- 15
2018-09-25 13:00:00 18.8 9 Sudeste 31 Este 0 -- -- 21
2018-09-25 12:00:00 15.4 2 Sudeste 9 Norte 0 -- -- 48
2018-09-25 11:00:00 11.9 4 Nordeste 8 Nordeste 0 -- -- 61
2018-09-25 10:00:00 8.7 3 Este 11 Nordeste 0 -- -- 74
2018-09-25 09:00:00 3.9 3 Este 6 Este 0 -- -- 83
2018-09-25 08:00:00 2.4 0 Calma 5 Nordeste 0 -- -- 80
2018-09-25 07:00:00 3.6 2 Este 8 Nordeste 0 -- -- 78
2018-09-25 06:00:00 4.5 0 Calma 9 Este 0 -- -- 78
2018-09-25 05:00:00 4.1 2 Este 5 Nordeste 0 -- -- 80
2018-09-25 04:00:00 5.8 3 Este 9 Sudeste 0 -- -- 75
2018-09-25 03:00:00 6.6 5 Sudeste 9 Este 0 -- -- 72
2018-09-25 02:00:00 8.6 4 Nordeste 10 Este 0 -- -- 66
2018-09-25 01:00:00 9.9 8 Nordeste 15 Este 0 -- -- 65
2018-09-25 00:00:00 10.5 9 Este 26 Este 0 -- -- 69
2018-09-24 23:00:00 11.4 15 Este 22 Este 0 -- -- 68
2018-09-24 22:00:00 12.9 7 Este 15 Este 0 -- -- 66
2018-09-24 21:00:00 15.1 11 Este 27 Sudeste 0 -- -- 64
2018-09-24 20:00:00 18.1 15 Sudeste 33 Sudeste 0 -- -- 57
2018-09-24 19:00:00 21.4 15 Sudeste 30 Sudeste 0 -- -- 50
2018-09-24 18:00:00 23 18 Sudeste 27 Sudeste 0 -- -- 46
2018-09-24 17:00:00 24.5 14 Sudeste 22 Sur 0 -- -- 43
2018-09-24 16:00:00 23.6 14 Sudeste 25 Sudeste 0 -- -- 46
2018-09-24 15:00:00 23.5 12 Sudeste 22 Sur 0 -- -- 48
2018-09-24 14:00:00 21.3 5 Sudeste 18 Este 0 -- -- 55
2018-09-24 13:00:00 21 5 Este 19 Este 0 -- -- 57
2018-09-24 12:00:00 19.3 5 Este 19 Sudeste 0 -- -- 63
2018-09-24 11:00:00 18.1 12 Sudeste 18 Sudeste 0 -- -- 69
2018-09-24 10:00:00 14.5 2 Nordeste 6 Este 0 -- -- 86
2018-09-24 09:00:00 9.6 2 Nordeste 4 Este 0 -- -- 95
2018-09-24 08:00:00 9 3 Este 4 Sudeste 0 -- -- 93
2018-09-24 07:00:00 10 0 Calma 4 Sudeste 0 -- -- 89
2018-09-24 06:00:00 10.6 2 Sudeste 9 Norte 0 -- -- 89
2018-09-24 05:00:00 10.5 0 Calma 4 Sur 0 -- -- 88
2018-09-24 04:00:00 11.4 0 Calma 6 Nordeste 0 -- -- 86
2018-09-24 03:00:00 12.2 5 Nordeste 6 Nordeste 0 -- -- 85
2018-09-24 02:00:00 14.1 0 Calma 8 Sudeste 0 -- -- 79
2018-09-24 01:00:00 15.5 6 Sudeste 9 Este 0 -- -- 73
2018-09-24 00:00:00 15.9 6 Este 9 Este 0 -- -- 67
2018-09-23 23:00:00 17.9 7 Nordeste 16 Nordeste 0 -- -- 62
2018-09-23 22:00:00 20.9 10 Nordeste 18 Nordeste 0 -- -- 52
2018-09-23 21:00:00 22.4 10 Norte 24 Nordeste 0 -- -- 49
2018-09-23 20:00:00 24.5 18 Nordeste 30 Nordeste 0 -- -- 45
2018-09-23 19:00:00 26.1 13 Nordeste 22 Nordeste 0 -- -- 44
2018-09-23 18:00:00 29.3 13 Norte 22 Sudoeste 0 -- -- 36
2018-09-23 17:00:00 29.7 11 Sudoeste 24 Sudoeste 0 -- -- 35
2018-09-23 16:00:00 28.9 12 Sudoeste 25 Oeste 0 -- -- 37
2018-09-23 15:00:00 28.4 13 Sudoeste 23 Sudoeste 0 -- -- 37
2018-09-23 14:00:00 27.2 13 Oeste 21 Oeste 0 -- -- 42
2018-09-23 13:00:00 25.8 7 Norte 13 Noroeste 0 -- -- 45
2018-09-23 12:00:00 23.9 4 Norte 9 Norte 0 -- -- 52
2018-09-23 11:00:00 20.7 6 Norte 13 Nordeste 0 -- -- 65
2018-09-23 10:00:00 17.2 8 Nordeste 17 Nordeste 0 -- -- 78
2018-09-23 09:00:00 13.8 10 Nordeste 16 Nordeste 0 -- -- 91
2018-09-23 08:00:00 11.2 4 Nordeste 8 Nordeste 0 -- -- 92
2018-09-23 07:00:00 12.1 3 Este 9 Nordeste 0 -- -- 90
2018-09-23 06:00:00 12.9 6 Nordeste 10 Nordeste 0 -- -- 91
2018-09-23 05:00:00 12.8 4 Nordeste 10 Nordeste 0 -- -- 86
2018-09-23 04:00:00 14 7 Nordeste 11 Nordeste 0 -- -- 86
2018-09-23 03:00:00 14 4 Nordeste 10 Nordeste 0 -- -- 85
2018-09-23 02:00:00 14.4 5 Este 9 Nordeste 0 -- -- 79
2018-09-23 01:00:00 15.3 5 Nordeste 8 Norte 0 -- -- 74
2018-09-23 00:00:00 15.2 5 Nordeste 9 Este 0 -- -- 69
2018-09-22 23:00:00 16.5 4 Nordeste 6 Nordeste 0 -- -- 65
2018-09-22 22:00:00 18.4 0 Calma 6 Sur 0 -- -- 60
2018-09-22 21:00:00 21.7 5 Sur 9 Sudoeste 0 -- -- 51
2018-09-22 20:00:00 26.1 7 Sudoeste 13 Oeste 0 -- -- 41
2018-09-22 19:00:00 27.8 9 Sudoeste 16 Sudoeste 0 -- -- 36
2018-09-22 18:00:00 28.4 9 Sudoeste 17 Oeste 0 -- -- 36
2018-09-22 17:00:00 27.9 8 Sudoeste 20 Sudoeste 0 -- -- 37
2018-09-22 16:00:00 26.9 10 Sudoeste 21 Oeste 0 -- -- 41
2018-09-22 15:00:00 25.9 10 Sudoeste 22 Oeste 0 -- -- 43
2018-09-22 14:00:00 24.9 11 Sudoeste 20 Sur 0 -- -- 47
2018-09-22 13:00:00 23.3 8 Sudoeste 14 Oeste 0 -- -- 51
2018-09-22 12:00:00 21.5 5 Oeste 10 Noroeste 0 -- -- 55
2018-09-22 11:00:00 19.1 0 Calma 12 Nordeste 0 -- -- 64
2018-09-22 10:00:00 14.4 2 Nordeste 9 Nordeste 0 -- -- 81
2018-09-22 09:00:00 10.3 4 Nordeste 7 Nordeste 0 -- -- 94
2018-09-22 08:00:00 9.2 4 Este 6 Este 0 -- -- 91
2018-09-22 07:00:00 10 4 Este 6 Este 0 -- -- 91
2018-09-22 06:00:00 10.3 5 Nordeste 6 Nordeste 0 -- -- 89
2018-09-22 05:00:00 11.8 3 Nordeste 8 Nordeste 0 -- -- 85
2018-09-22 04:00:00 12.4 6 Nordeste 9 Nordeste 0 -- -- 88
2018-09-22 03:00:00 12.2 3 Este 6 Nordeste 0 -- -- 83
2018-09-22 02:00:00 13.7 2 Este 10 Nordeste 0 -- -- 78
2018-09-22 01:00:00 16 6 Nordeste 12 Este 0 -- -- 73
2018-09-22 00:00:00 17.1 7 Este 17 Este 0 -- -- 69
2018-09-21 23:00:00 17.5 4 Nordeste 19 Este 0 -- -- 65
2018-09-21 22:00:00 16 7 Este 12 Nordeste 0 -- -- 57
2018-09-21 21:00:00 17.3 3 Sudeste 6 Sur 0 -- -- 53
2018-09-21 20:00:00 22.7 3 Sudoeste 12 Sudoeste 0 -- -- 37
2018-09-21 19:00:00 24.2 8 Sudoeste 16 Oeste 0 -- -- 33
2018-09-21 18:00:00 24.5 10 Oeste 20 Oeste 0 -- -- 32
2018-09-21 17:00:00 25.3 6 Oeste 17 Oeste 0 -- -- 33
2018-09-21 16:00:00 25 9 Oeste 19 Oeste 0 -- -- 32
2018-09-21 15:00:00 24.6 9 Oeste 16 Oeste 0 -- -- 33
2018-09-21 14:00:00 23.1 3 Oeste 12 Noroeste 0 -- -- 35
2018-09-21 13:00:00 21.6 3 Noroeste 9 Noroeste 0 -- -- 43
2018-09-21 12:00:00 17.7 2 Oeste 8 Norte 0 -- -- 57
2018-09-21 11:00:00 14.2 3 Norte 10 Norte 0 -- -- 69
2018-09-21 10:00:00 10.1 0 Calma 8 Este 0 -- -- 83
2018-09-21 09:00:00 6.6 4 Norte 7 Norte 0 -- -- 91
2018-09-21 08:00:00 5.5 3 Este 6 Este 0 -- -- 87
2018-09-21 07:00:00 5.8 2 Norte 4 Norte 0 -- -- 87
2018-09-21 06:00:00 6.6 4 Nordeste 6 Este 0 -- -- 84
2018-09-21 05:00:00 7 0 Calma 6 Nordeste 0 -- -- 83
2018-09-21 04:00:00 8 4 Este 5 Nordeste 0 -- -- 80
2018-09-21 03:00:00 8.9 2 Este 3 Norte 0 -- -- 77
2018-09-21 02:00:00 9.8 3 Este 4 Nordeste 0 -- -- 73
2018-09-21 01:00:00 12.2 0 Calma 4 Este 0 -- -- 67
2018-09-21 00:00:00 14.1 0 Calma 7 Noroeste 0 -- -- 60
2018-09-20 23:00:00 15.3 5 Sudoeste 9 Oeste 0 -- -- 57
2018-09-20 22:00:00 18 5 Oeste 10 Sudoeste 0 -- -- 48
2018-09-20 21:00:00 21.4 5 Oeste 19 Sudoeste 0 -- -- 39
2018-09-20 20:00:00 24.1 10 Sudoeste 20 Sudoeste 0 -- -- 34
2018-09-20 19:00:00 26.2 12 Sudoeste 26 Oeste 0 -- -- 33
2018-09-20 18:00:00 27.9 10 Oeste 23 Oeste 0 -- -- 34
2018-09-20 17:00:00 27.4 14 Sudoeste 30 Sudoeste 0 -- -- 35
2018-09-20 16:00:00 27.3 19 Sudoeste 33 Oeste 0 -- -- 30
2018-09-20 15:00:00 26.3 19 Oeste 30 Sudoeste 0 -- -- 34
2018-09-20 14:00:00 25.5 16 Sudoeste 25 Oeste 0 -- -- 41
2018-09-20 13:00:00 24.6 10 Sudoeste 20 Sudoeste 0 -- -- 44
2018-09-20 12:00:00 22.9 4 Oeste 10 Noroeste 0 -- -- 53
2018-09-20 11:00:00 19.3 4 Norte 6 Norte 0 -- -- 65
2018-09-20 10:00:00 15.1 3 Nordeste 7 Nordeste 0 -- -- 76
2018-09-20 09:00:00 10.6 3 Nordeste 8 Nordeste 0 -- -- 92
2018-09-20 08:00:00 9.7 5 Nordeste 10 Nordeste 0 -- -- 88
2018-09-20 07:00:00 9.5 5 Este 9 Nordeste 0 -- -- 86
2018-09-20 06:00:00 10.2 4 Nordeste 8 Nordeste 0 -- -- 84
2018-09-20 05:00:00 11 5 Nordeste 9 Nordeste 0 -- -- 77
2018-09-20 04:00:00 11.4 5 Nordeste 9 Nordeste 0 -- -- 76
2018-09-20 03:00:00 10.6 4 Nordeste 6 Nordeste 0 -- -- 76
2018-09-20 02:00:00 10.8 6 Este 8 Este 0 -- -- 75
2018-09-20 01:00:00 11.4 4 Nordeste 7 Nordeste 0 -- -- 72
2018-09-20 00:00:00 13.2 4 Nordeste 7 Nordeste 0 -- -- 67